CMB826 Details

Departure: Travis Air Force Base (KSUU)
Arrival: Daniel K Inouye International Airport (PHNL)
Route: BESSA PYE BEBOP R464 BITTA
Notes: USTRANSCOM CONTRACT FLIGHT


Current Weather Information
KSUU 252358Z 23014KT 4SM RA BR OVC039 13/12 A3005 RMK AO2A TWR VIS 3200 RAE42RAB56 SLP183 P0015 60023 T01320119 10172 20131 58003 $
PHNL 252353Z 07012G18KT 10SM SCT028 BKN046 BKN075 27/18 A3006 RMK AO2 RAB22E32 SLP179 P0000 60000 T02720178 10278 20228 58015